Terminal Aerodrome Forecast
Issued by NWS

Home | Current Version | Previous Version | Text Only | Print | Product List | Glossary On
Versions: 1 2 3 4 5 6 7 8 9 10 11 12 13
000
FTUS43 KICT 280520
TAFSLN
TAF
KSLN 280520Z 2806/2906 16007KT P6SM SCT080
     FM280900 19007KT P6SM SCT080
     FM281500 24008KT P6SM SCT080
     FM282000 34015G22KT P6SM SCT080
     FM290300 04007KT P6SM SKC=

USA.gov is the U.S. government's official web portal to all federal, state and local government web resources and services.